sensor_id;sensor_type;location;lat;lon;timestamp;P1;P2;P0
61592;PMS5003;47485;51.378;-1.342;2023-02-27T00:01:33;10;9;
61592;PMS5003;47485;51.378;-1.342;2023-02-27T00:04:00;6;6;
61592;PMS5003;47485;51.378;-1.342;2023-02-27T00:06:27;9;8;
61592;PMS5003;47485;51.378;-1.342;2023-02-27T00:08:54;7;7;
61592;PMS5003;47485;51.378;-1.342;2023-02-27T00:11:21;7;6;
61592;PMS5003;47485;51.378;-1.342;2023-02-27T00:13:49;8;7;
61592;PMS5003;47485;51.378;-1.342;2023-02-27T00:16:16;13;8;
61592;PMS5003;47485;51.378;-1.342;2023-02-27T00:18:43;8;6;
61592;PMS5003;47485;51.378;-1.342;2023-02-27T00:21:09;11;8;
61592;PMS5003;47485;51.378;-1.342;2023-02-27T00:23:36;7;6;
61592;PMS5003;47485;51.378;-1.342;2023-02-27T00:26:03;9;7;
61592;PMS5003;47485;51.378;-1.342;2023-02-27T00:28:30;15;12;
61592;PMS5003;47485;51.378;-1.342;2023-02-27T00:30:57;7;6;
61592;PMS5003;47485;51.378;-1.342;2023-02-27T00:33:24;6;6;
61592;PMS5003;47485;51.378;-1.342;2023-02-27T00:35:54;8;8;
61592;PMS5003;47485;51.378;-1.342;2023-02-27T00:38:22;14;11;
61592;PMS5003;47485;51.378;-1.342;2023-02-27T00:40:49;7;6;
61592;PMS5003;47485;51.378;-1.342;2023-02-27T00:43:17;7;7;
61592;PMS5003;47485;51.378;-1.342;2023-02-27T00:45:44;7;6;
61592;PMS5003;47485;51.378;-1.342;2023-02-27T00:48:11;7;7;
61592;PMS5003;47485;51.378;-1.342;2023-02-27T00:50:37;8;8;
61592;PMS5003;47485;51.378;-1.342;2023-02-27T00:53:04;14;8;
61592;PMS5003;47485;51.378;-1.342;2023-02-27T00:55:31;9;5;
61592;PMS5003;47485;51.378;-1.342;2023-02-27T00:57:58;5;5;
61592;PMS5003;47485;51.378;-1.342;2023-02-27T01:00:25;8;7;
61592;PMS5003;47485;51.378;-1.342;2023-02-27T01:02:52;7;5;
61592;PMS5003;47485;51.378;-1.342;2023-02-27T01:05:19;6;5;
61592;PMS5003;47485;51.378;-1.342;2023-02-27T01:07:46;5;3;
61592;PMS5003;47485;51.378;-1.342;2023-02-27T01:10:13;8;8;
61592;PMS5003;47485;51.378;-1.342;2023-02-27T01:12:40;8;5;
61592;PMS5003;47485;51.378;-1.342;2023-02-27T01:15:07;6;5;
61592;PMS5003;47485;51.378;-1.342;2023-02-27T01:17:35;4;4;
61592;PMS5003;47485;51.378;-1.342;2023-02-27T01:20:03;8;5;
61592;PMS5003;47485;51.378;-1.342;2023-02-27T01:22:30;4;4;
61592;PMS5003;47485;51.378;-1.342;2023-02-27T01:24:57;8;6;
61592;PMS5003;47485;51.378;-1.342;2023-02-27T01:27:24;7;7;
61592;PMS5003;47485;51.378;-1.342;2023-02-27T01:29:56;6;6;
61592;PMS5003;47485;51.378;-1.342;2023-02-27T01:32:23;10;8;
61592;PMS5003;47485;51.378;-1.342;2023-02-27T01:34:50;6;4;
61592;PMS5003;47485;51.378;-1.342;2023-02-27T01:37:17;6;5;
61592;PMS5003;47485;51.378;-1.342;2023-02-27T01:39:44;6;6;
61592;PMS5003;47485;51.378;-1.342;2023-02-27T01:42:16;6;6;
61592;PMS5003;47485;51.378;-1.342;2023-02-27T01:45:19;10;7;
61592;PMS5003;47485;51.378;-1.342;2023-02-27T01:47:54;9;6;
61592;PMS5003;47485;51.378;-1.342;2023-02-27T01:50:26;8;7;
61592;PMS5003;47485;51.378;-1.342;2023-02-27T01:52:55;6;6;
61592;PMS5003;47485;51.378;-1.342;2023-02-27T01:55:26;7;6;
61592;PMS5003;47485;51.378;-1.342;2023-02-27T01:57:55;14;10;
61592;PMS5003;47485;51.378;-1.342;2023-02-27T02:00:23;9;7;
61592;PMS5003;47485;51.378;-1.342;2023-02-27T02:02:54;7;6;
61592;PMS5003;47485;51.378;-1.342;2023-02-27T02:05:25;15;8;
61592;PMS5003;47485;51.378;-1.342;2023-02-27T02:07:54;13;10;
61592;PMS5003;47485;51.378;-1.342;2023-02-27T02:10:22;12;11;
61592;PMS5003;47485;51.378;-1.342;2023-02-27T02:12:51;14;13;
61592;PMS5003;47485;51.378;-1.342;2023-02-27T02:15:18;12;10;
61592;PMS5003;47485;51.378;-1.342;2023-02-27T02:17:53;10;10;
61592;PMS5003;47485;51.378;-1.342;2023-02-27T02:20:31;14;14;
61592;PMS5003;47485;51.378;-1.342;2023-02-27T02:23:27;7;7;
61592;PMS5003;47485;51.378;-1.342;2023-02-27T02:26:25;9;9;
61592;PMS5003;47485;51.378;-1.342;2023-02-27T02:29:06;7;7;
61592;PMS5003;47485;51.378;-1.342;2023-02-27T02:31:55;9;7;
61592;PMS5003;47485;51.378;-1.342;2023-02-27T02:35:12;10;9;
61592;PMS5003;47485;51.378;-1.342;2023-02-27T02:39:09;10;9;
61592;PMS5003;47485;51.378;-1.342;2023-02-27T02:41:50;10;7;
61592;PMS5003;47485;51.378;-1.342;2023-02-27T02:44:26;7;6;
61592;PMS5003;47485;51.378;-1.342;2023-02-27T02:47:06;12;11;
61592;PMS5003;47485;51.378;-1.342;2023-02-27T02:49:44;9;7;
61592;PMS5003;47485;51.378;-1.342;2023-02-27T02:52:22;11;7;
61592;PMS5003;47485;51.378;-1.342;2023-02-27T02:54:56;13;10;
61592;PMS5003;47485;51.378;-1.342;2023-02-27T02:57:30;15;12;
61592;PMS5003;47485;51.378;-1.342;2023-02-27T03:00:04;12;9;
61592;PMS5003;47485;51.378;-1.342;2023-02-27T03:02:36;12;7;
61592;PMS5003;47485;51.378;-1.342;2023-02-27T03:05:08;13;10;
61592;PMS5003;47485;51.378;-1.342;2023-02-27T03:07:41;10;8;
61592;PMS5003;47485;51.378;-1.342;2023-02-27T03:10:12;8;8;
61592;PMS5003;47485;51.378;-1.342;2023-02-27T03:12:43;7;7;
61592;PMS5003;47485;51.378;-1.342;2023-02-27T03:15:14;13;11;
61592;PMS5003;47485;51.378;-1.342;2023-02-27T03:17:44;13;11;
61592;PMS5003;47485;51.378;-1.342;2023-02-27T03:20:18;10;7;
61592;PMS5003;47485;51.378;-1.342;2023-02-27T03:22:51;8;8;
61592;PMS5003;47485;51.378;-1.342;2023-02-27T03:25:20;12;10;
61592;PMS5003;47485;51.378;-1.342;2023-02-27T03:27:51;10;7;
61592;PMS5003;47485;51.378;-1.342;2023-02-27T03:30:22;11;8;
61592;PMS5003;47485;51.378;-1.342;2023-02-27T03:32:56;11;9;
61592;PMS5003;47485;51.378;-1.342;2023-02-27T03:35:29;12;9;
61592;PMS5003;47485;51.378;-1.342;2023-02-27T03:38:05;13;11;
61592;PMS5003;47485;51.378;-1.342;2023-02-27T03:40:42;10;9;
61592;PMS5003;47485;51.378;-1.342;2023-02-27T03:43:18;12;11;
61592;PMS5003;47485;51.378;-1.342;2023-02-27T03:45:53;14;13;
61592;PMS5003;47485;51.378;-1.342;2023-02-27T03:48:24;11;9;
61592;PMS5003;47485;51.378;-1.342;2023-02-27T03:50:50;9;7;
61592;PMS5003;47485;51.378;-1.342;2023-02-27T03:53:20;14;10;
61592;PMS5003;47485;51.378;-1.342;2023-02-27T03:55:51;19;13;
61592;PMS5003;47485;51.378;-1.342;2023-02-27T03:58:20;10;9;
61592;PMS5003;47485;51.378;-1.342;2023-02-27T04:00:48;13;11;
61592;PMS5003;47485;51.378;-1.342;2023-02-27T04:03:15;11;11;
61592;PMS5003;47485;51.378;-1.342;2023-02-27T04:05:42;13;10;
61592;PMS5003;47485;51.378;-1.342;2023-02-27T04:08:15;9;9;
61592;PMS5003;47485;51.378;-1.342;2023-02-27T04:11:00;11;8;
61592;PMS5003;47485;51.378;-1.342;2023-02-27T04:13:41;15;10;
61592;PMS5003;47485;51.378;-1.342;2023-02-27T04:16:22;10;9;
61592;PMS5003;47485;51.378;-1.342;2023-02-27T04:19:09;10;9;
61592;PMS5003;47485;51.378;-1.342;2023-02-27T04:21:43;10;10;
61592;PMS5003;47485;51.378;-1.342;2023-02-27T04:24:24;9;9;
61592;PMS5003;47485;51.378;-1.342;2023-02-27T04:27:02;5;5;
61592;PMS5003;47485;51.378;-1.342;2023-02-27T04:29:41;7;7;
61592;PMS5003;47485;51.378;-1.342;2023-02-27T04:32:18;10;8;
61592;PMS5003;47485;51.378;-1.342;2023-02-27T04:34:52;8;6;
61592;PMS5003;47485;51.378;-1.342;2023-02-27T04:37:23;5;5;
61592;PMS5003;47485;51.378;-1.342;2023-02-27T04:39:56;7;6;
61592;PMS5003;47485;51.378;-1.342;2023-02-27T04:42:28;5;5;
61592;PMS5003;47485;51.378;-1.342;2023-02-27T04:44:58;8;6;
61592;PMS5003;47485;51.378;-1.342;2023-02-27T04:47:31;7;5;
61592;PMS5003;47485;51.378;-1.342;2023-02-27T04:50:05;11;7;
61592;PMS5003;47485;51.378;-1.342;2023-02-27T04:52:36;7;5;
61592;PMS5003;47485;51.378;-1.342;2023-02-27T04:55:08;9;7;
61592;PMS5003;47485;51.378;-1.342;2023-02-27T04:57:41;5;4;
61592;PMS5003;47485;51.378;-1.342;2023-02-27T05:00:15;6;6;
61592;PMS5003;47485;51.378;-1.342;2023-02-27T05:02:49;7;7;
61592;PMS5003;47485;51.378;-1.342;2023-02-27T05:05:20;7;7;
61592;PMS5003;47485;51.378;-1.342;2023-02-27T05:07:53;7;5;
61592;PMS5003;47485;51.378;-1.342;2023-02-27T05:10:25;6;5;
61592;PMS5003;47485;51.378;-1.342;2023-02-27T05:12:58;8;5;
61592;PMS5003;47485;51.378;-1.342;2023-02-27T05:15:32;6;6;
61592;PMS5003;47485;51.378;-1.342;2023-02-27T05:18:05;7;5;
61592;PMS5003;47485;51.378;-1.342;2023-02-27T05:20:36;5;5;
61592;PMS5003;47485;51.378;-1.342;2023-02-27T05:23:14;12;9;
61592;PMS5003;47485;51.378;-1.342;2023-02-27T05:25:47;6;6;
61592;PMS5003;47485;51.378;-1.342;2023-02-27T05:28:22;9;6;
61592;PMS5003;47485;51.378;-1.342;2023-02-27T05:30:56;5;4;
61592;PMS5003;47485;51.378;-1.342;2023-02-27T05:33:31;11;6;
61592;PMS5003;47485;51.378;-1.342;2023-02-27T05:36:04;11;5;
61592;PMS5003;47485;51.378;-1.342;2023-02-27T05:38:37;6;6;
61592;PMS5003;47485;51.378;-1.342;2023-02-27T05:41:09;6;6;
61592;PMS5003;47485;51.378;-1.342;2023-02-27T05:43:40;4;4;
61592;PMS5003;47485;51.378;-1.342;2023-02-27T05:46:12;7;5;
61592;PMS5003;47485;51.378;-1.342;2023-02-27T05:48:45;6;4;
61592;PMS5003;47485;51.378;-1.342;2023-02-27T05:51:16;8;5;
61592;PMS5003;47485;51.378;-1.342;2023-02-27T05:53:51;12;7;
61592;PMS5003;47485;51.378;-1.342;2023-02-27T05:56:23;5;5;
61592;PMS5003;47485;51.378;-1.342;2023-02-27T05:58:55;7;4;
61592;PMS5003;47485;51.378;-1.342;2023-02-27T06:01:25;6;6;
61592;PMS5003;47485;51.378;-1.342;2023-02-27T06:03:52;12;11;
61592;PMS5003;47485;51.378;-1.342;2023-02-27T06:06:19;7;7;
61592;PMS5003;47485;51.378;-1.342;2023-02-27T06:08:48;7;5;
61592;PMS5003;47485;51.378;-1.342;2023-02-27T06:11:16;7;7;
61592;PMS5003;47485;51.378;-1.342;2023-02-27T06:13:43;15;14;
61592;PMS5003;47485;51.378;-1.342;2023-02-27T06:16:11;6;6;
61592;PMS5003;47485;51.378;-1.342;2023-02-27T06:18:40;6;5;
61592;PMS5003;47485;51.378;-1.342;2023-02-27T06:21:07;5;5;
61592;PMS5003;47485;51.378;-1.342;2023-02-27T06:23:33;6;6;
61592;PMS5003;47485;51.378;-1.342;2023-02-27T06:26:00;8;8;
61592;PMS5003;47485;51.378;-1.342;2023-02-27T06:28:27;8;8;
61592;PMS5003;47485;51.378;-1.342;2023-02-27T06:30:54;8;7;
61592;PMS5003;47485;51.378;-1.342;2023-02-27T06:33:22;8;8;
61592;PMS5003;47485;51.378;-1.342;2023-02-27T06:35:50;9;7;
61592;PMS5003;47485;51.378;-1.342;2023-02-27T06:38:16;9;7;
61592;PMS5003;47485;51.378;-1.342;2023-02-27T06:40:43;9;8;
61592;PMS5003;47485;51.378;-1.342;2023-02-27T06:43:10;8;8;
61592;PMS5003;47485;51.378;-1.342;2023-02-27T06:45:37;13;8;
61592;PMS5003;47485;51.378;-1.342;2023-02-27T06:48:04;10;8;
61592;PMS5003;47485;51.378;-1.342;2023-02-27T06:50:32;8;7;
61592;PMS5003;47485;51.378;-1.342;2023-02-27T06:52:59;12;10;
61592;PMS5003;47485;51.378;-1.342;2023-02-27T06:55:26;11;11;
61592;PMS5003;47485;51.378;-1.342;2023-02-27T06:57:52;9;8;
61592;PMS5003;47485;51.378;-1.342;2023-02-27T07:00:19;14;11;
61592;PMS5003;47485;51.378;-1.342;2023-02-27T07:02:47;14;9;
61592;PMS5003;47485;51.378;-1.342;2023-02-27T07:05:15;9;8;
61592;PMS5003;47485;51.378;-1.342;2023-02-27T07:07:42;9;9;
61592;PMS5003;47485;51.378;-1.342;2023-02-27T07:10:11;8;8;
61592;PMS5003;47485;51.378;-1.342;2023-02-27T07:12:39;8;8;
61592;PMS5003;47485;51.378;-1.342;2023-02-27T07:15:06;13;12;
61592;PMS5003;47485;51.378;-1.342;2023-02-27T07:17:34;13;11;
61592;PMS5003;47485;51.378;-1.342;2023-02-27T07:20:00;12;8;
61592;PMS5003;47485;51.378;-1.342;2023-02-27T07:22:27;16;12;
61592;PMS5003;47485;51.378;-1.342;2023-02-27T07:24:54;12;11;
61592;PMS5003;47485;51.378;-1.342;2023-02-27T07:27:22;13;11;
61592;PMS5003;47485;51.378;-1.342;2023-02-27T07:29:50;13;13;
61592;PMS5003;47485;51.378;-1.342;2023-02-27T07:32:17;16;16;
61592;PMS5003;47485;51.378;-1.342;2023-02-27T07:34:44;16;16;
61592;PMS5003;47485;51.378;-1.342;2023-02-27T07:37:11;16;14;
61592;PMS5003;47485;51.378;-1.342;2023-02-27T07:39:38;21;19;
61592;PMS5003;47485;51.378;-1.342;2023-02-27T07:42:05;22;19;
61592;PMS5003;47485;51.378;-1.342;2023-02-27T07:44:32;18;15;
61592;PMS5003;47485;51.378;-1.342;2023-02-27T07:47:00;16;14;
61592;PMS5003;47485;51.378;-1.342;2023-02-27T07:49:27;15;11;
61592;PMS5003;47485;51.378;-1.342;2023-02-27T07:51:53;11;10;
61592;PMS5003;47485;51.378;-1.342;2023-02-27T07:54:21;18;12;
61592;PMS5003;47485;51.378;-1.342;2023-02-27T07:56:53;14;11;
61592;PMS5003;47485;51.378;-1.342;2023-02-27T07:59:19;12;11;
61592;PMS5003;47485;51.378;-1.342;2023-02-27T08:01:47;14;11;
61592;PMS5003;47485;51.378;-1.342;2023-02-27T08:04:14;14;13;
61592;PMS5003;47485;51.378;-1.342;2023-02-27T08:06:41;17;13;
61592;PMS5003;47485;51.378;-1.342;2023-02-27T08:09:07;13;13;
61592;PMS5003;47485;51.378;-1.342;2023-02-27T08:11:35;15;11;
61592;PMS5003;47485;51.378;-1.342;2023-02-27T08:14:02;17;14;
61592;PMS5003;47485;51.378;-1.342;2023-02-27T08:16:29;14;12;
61592;PMS5003;47485;51.378;-1.342;2023-02-27T08:18:56;12;11;
61592;PMS5003;47485;51.378;-1.342;2023-02-27T08:21:23;13;12;
61592;PMS5003;47485;51.378;-1.342;2023-02-27T08:23:51;13;11;
61592;PMS5003;47485;51.378;-1.342;2023-02-27T08:26:18;15;12;
61592;PMS5003;47485;51.378;-1.342;2023-02-27T08:28:45;16;16;
61592;PMS5003;47485;51.378;-1.342;2023-02-27T08:31:13;14;13;
61592;PMS5003;47485;51.378;-1.342;2023-02-27T08:33:39;11;11;
61592;PMS5003;47485;51.378;-1.342;2023-02-27T08:36:06;16;13;
61592;PMS5003;47485;51.378;-1.342;2023-02-27T08:38:34;16;13;
61592;PMS5003;47485;51.378;-1.342;2023-02-27T08:41:00;13;13;
61592;PMS5003;47485;51.378;-1.342;2023-02-27T08:43:27;10;10;
61592;PMS5003;47485;51.378;-1.342;2023-02-27T08:45:54;11;11;
61592;PMS5003;47485;51.378;-1.342;2023-02-27T08:48:21;15;13;
61592;PMS5003;47485;51.378;-1.342;2023-02-27T08:50:48;15;13;
61592;PMS5003;47485;51.378;-1.342;2023-02-27T08:53:15;15;15;
61592;PMS5003;47485;51.378;-1.342;2023-02-27T08:55:43;19;15;
61592;PMS5003;47485;51.378;-1.342;2023-02-27T08:58:13;12;11;
61592;PMS5003;47485;51.378;-1.342;2023-02-27T09:00:40;13;13;
61592;PMS5003;47485;51.378;-1.342;2023-02-27T09:03:07;14;13;
61592;PMS5003;47485;51.378;-1.342;2023-02-27T09:05:34;13;12;
61592;PMS5003;47485;51.378;-1.342;2023-02-27T09:08:01;14;13;
61592;PMS5003;47485;51.378;-1.342;2023-02-27T09:10:29;17;14;
61592;PMS5003;47485;51.378;-1.342;2023-02-27T09:12:56;17;13;
61592;PMS5003;47485;51.378;-1.342;2023-02-27T09:15:24;12;11;
61592;PMS5003;47485;51.378;-1.342;2023-02-27T09:17:51;16;12;
61592;PMS5003;47485;51.378;-1.342;2023-02-27T09:20:18;14;14;
61592;PMS5003;47485;51.378;-1.342;2023-02-27T09:22:45;16;16;
61592;PMS5003;47485;51.378;-1.342;2023-02-27T09:25:12;15;12;
61592;PMS5003;47485;51.378;-1.342;2023-02-27T09:27:39;12;10;
61592;PMS5003;47485;51.378;-1.342;2023-02-27T09:30:07;15;15;
61592;PMS5003;47485;51.378;-1.342;2023-02-27T09:32:35;13;11;
61592;PMS5003;47485;51.378;-1.342;2023-02-27T09:35:03;15;14;
61592;PMS5003;47485;51.378;-1.342;2023-02-27T09:37:31;17;16;
61592;PMS5003;47485;51.378;-1.342;2023-02-27T09:39:58;16;14;
61592;PMS5003;47485;51.378;-1.342;2023-02-27T09:42:26;17;15;
61592;PMS5003;47485;51.378;-1.342;2023-02-27T09:45:00;16;12;
61592;PMS5003;47485;51.378;-1.342;2023-02-27T09:47:32;15;15;
61592;PMS5003;47485;51.378;-1.342;2023-02-27T09:50:04;15;13;
61592;PMS5003;47485;51.378;-1.342;2023-02-27T09:52:33;15;14;
61592;PMS5003;47485;51.378;-1.342;2023-02-27T09:55:03;16;16;
61592;PMS5003;47485;51.378;-1.342;2023-02-27T09:57:38;19;14;
61592;PMS5003;47485;51.378;-1.342;2023-02-27T10:00:26;16;15;
61592;PMS5003;47485;51.378;-1.342;2023-02-27T10:03:06;18;18;
61592;PMS5003;47485;51.378;-1.342;2023-02-27T10:05:44;21;18;
61592;PMS5003;47485;51.378;-1.342;2023-02-27T10:08:22;19;17;
61592;PMS5003;47485;51.378;-1.342;2023-02-27T10:10:55;15;12;
61592;PMS5003;47485;51.378;-1.342;2023-02-27T10:13:32;17;14;
61592;PMS5003;47485;51.378;-1.342;2023-02-27T10:16:08;17;13;
61592;PMS5003;47485;51.378;-1.342;2023-02-27T10:18:42;13;12;
61592;PMS5003;47485;51.378;-1.342;2023-02-27T10:21:17;17;12;
61592;PMS5003;47485;51.378;-1.342;2023-02-27T10:23:51;12;10;
61592;PMS5003;47485;51.378;-1.342;2023-02-27T10:26:24;14;14;
61592;PMS5003;47485;51.378;-1.342;2023-02-27T10:28:54;11;11;
61592;PMS5003;47485;51.378;-1.342;2023-02-27T10:31:24;18;14;
61592;PMS5003;47485;51.378;-1.342;2023-02-27T10:33:56;15;13;
61592;PMS5003;47485;51.378;-1.342;2023-02-27T10:36:26;14;12;
61592;PMS5003;47485;51.378;-1.342;2023-02-27T10:38:55;14;11;
61592;PMS5003;47485;51.378;-1.342;2023-02-27T10:41:26;17;13;
61592;PMS5003;47485;51.378;-1.342;2023-02-27T10:43:55;12;12;
61592;PMS5003;47485;51.378;-1.342;2023-02-27T10:46:24;14;12;
61592;PMS5003;47485;51.378;-1.342;2023-02-27T10:48:54;13;12;
61592;PMS5003;47485;51.378;-1.342;2023-02-27T10:51:24;10;10;
61592;PMS5003;47485;51.378;-1.342;2023-02-27T10:54:12;13;10;
61592;PMS5003;47485;51.378;-1.342;2023-02-27T10:56:41;10;10;
61592;PMS5003;47485;51.378;-1.342;2023-02-27T10:59:17;11;9;
61592;PMS5003;47485;51.378;-1.342;2023-02-27T11:01:46;12;12;
61592;PMS5003;47485;51.378;-1.342;2023-02-27T11:04:22;13;11;
61592;PMS5003;47485;51.378;-1.342;2023-02-27T11:06:51;9;9;
61592;PMS5003;47485;51.378;-1.342;2023-02-27T11:09:20;12;12;
61592;PMS5003;47485;51.378;-1.342;2023-02-27T11:11:50;13;13;
61592;PMS5003;47485;51.378;-1.342;2023-02-27T11:14:23;13;13;
61592;PMS5003;47485;51.378;-1.342;2023-02-27T11:16:53;16;13;
61592;PMS5003;47485;51.378;-1.342;2023-02-27T11:19:23;14;11;
61592;PMS5003;47485;51.378;-1.342;2023-02-27T11:21:59;12;12;
61592;PMS5003;47485;51.378;-1.342;2023-02-27T11:24:28;16;12;
61592;PMS5003;47485;51.378;-1.342;2023-02-27T11:26:57;10;10;
61592;PMS5003;47485;51.378;-1.342;2023-02-27T11:29:25;9;7;
61592;PMS5003;47485;51.378;-1.342;2023-02-27T11:31:54;10;9;
61592;PMS5003;47485;51.378;-1.342;2023-02-27T11:34:24;8;8;
61592;PMS5003;47485;51.378;-1.342;2023-02-27T11:36:55;7;7;
61592;PMS5003;47485;51.378;-1.342;2023-02-27T11:39:25;6;6;
61592;PMS5003;47485;51.378;-1.342;2023-02-27T11:41:57;7;7;
61592;PMS5003;47485;51.378;-1.342;2023-02-27T11:44:32;9;9;
61592;PMS5003;47485;51.378;-1.342;2023-02-27T11:47:07;12;10;
61592;PMS5003;47485;51.378;-1.342;2023-02-27T11:49:41;9;7;
61592;PMS5003;47485;51.378;-1.342;2023-02-27T11:52:26;7;7;
61592;PMS5003;47485;51.378;-1.342;2023-02-27T11:55:00;10;7;
61592;PMS5003;47485;51.378;-1.342;2023-02-27T11:57:30;7;7;
61592;PMS5003;47485;51.378;-1.342;2023-02-27T12:00:00;6;6;
61592;PMS5003;47485;51.378;-1.342;2023-02-27T12:02:38;7;6;
61592;PMS5003;47485;51.378;-1.342;2023-02-27T12:05:13;4;4;
61592;PMS5003;47485;51.378;-1.342;2023-02-27T12:07:43;5;4;
61592;PMS5003;47485;51.378;-1.342;2023-02-27T12:10:19;5;4;
61592;PMS5003;47485;51.378;-1.342;2023-02-27T12:12:48;6;6;
61592;PMS5003;47485;51.378;-1.342;2023-02-27T12:15:23;5;4;
61592;PMS5003;47485;51.378;-1.342;2023-02-27T12:18:01;8;8;
61592;PMS5003;47485;51.378;-1.342;2023-02-27T12:20:34;6;5;
61592;PMS5003;47485;51.378;-1.342;2023-02-27T12:23:09;11;11;
61592;PMS5003;47485;51.378;-1.342;2023-02-27T12:25:43;10;8;
61592;PMS5003;47485;51.378;-1.342;2023-02-27T12:28:19;10;8;
61592;PMS5003;47485;51.378;-1.342;2023-02-27T12:30:59;9;9;
61592;PMS5003;47485;51.378;-1.342;2023-02-27T12:33:35;9;8;
61592;PMS5003;47485;51.378;-1.342;2023-02-27T12:36:09;12;10;
61592;PMS5003;47485;51.378;-1.342;2023-02-27T12:38:36;8;8;
61592;PMS5003;47485;51.378;-1.342;2023-02-27T12:41:08;11;8;
61592;PMS5003;47485;51.378;-1.342;2023-02-27T12:43:55;6;6;
61592;PMS5003;47485;51.378;-1.342;2023-02-27T12:46:34;4;4;
61592;PMS5003;47485;51.378;-1.342;2023-02-27T12:49:15;4;4;
61592;PMS5003;47485;51.378;-1.342;2023-02-27T12:51:53;7;7;
61592;PMS5003;47485;51.378;-1.342;2023-02-27T12:54:31;6;5;
61592;PMS5003;47485;51.378;-1.342;2023-02-27T12:57:06;3;3;
61592;PMS5003;47485;51.378;-1.342;2023-02-27T12:59:57;5;5;
61592;PMS5003;47485;51.378;-1.342;2023-02-27T13:02:37;3;3;
61592;PMS5003;47485;51.378;-1.342;2023-02-27T13:05:15;3;3;
61592;PMS5003;47485;51.378;-1.342;2023-02-27T13:08:03;4;3;
61592;PMS5003;47485;51.378;-1.342;2023-02-27T13:10:35;5;3;
61592;PMS5003;47485;51.378;-1.342;2023-02-27T13:13:10;3;2;
61592;PMS5003;47485;51.378;-1.342;2023-02-27T13:15:47;4;2;
61592;PMS5003;47485;51.378;-1.342;2023-02-27T13:18:24;4;4;
61592;PMS5003;47485;51.378;-1.342;2023-02-27T13:20:59;4;4;
61592;PMS5003;47485;51.378;-1.342;2023-02-27T13:23:34;4;4;
61592;PMS5003;47485;51.378;-1.342;2023-02-27T13:26:13;3;3;
61592;PMS5003;47485;51.378;-1.342;2023-02-27T13:28:47;3;3;
61592;PMS5003;47485;51.378;-1.342;2023-02-27T13:31:17;3;3;
61592;PMS5003;47485;51.378;-1.342;2023-02-27T13:33:53;4;4;
61592;PMS5003;47485;51.378;-1.342;2023-02-27T13:36:30;2;2;
61592;PMS5003;47485;51.378;-1.342;2023-02-27T13:39:14;2;0;
61592;PMS5003;47485;51.378;-1.342;2023-02-27T13:42:03;1;1;
61592;PMS5003;47485;51.378;-1.342;2023-02-27T13:45:48;1;1;
61592;PMS5003;47485;51.378;-1.342;2023-02-27T13:48:35;3;3;
61592;PMS5003;47485;51.378;-1.342;2023-02-27T13:51:43;1;1;
61592;PMS5003;47485;51.378;-1.342;2023-02-27T13:54:20;2;2;
61592;PMS5003;47485;51.378;-1.342;2023-02-27T13:57:04;2;2;
61592;PMS5003;47485;51.378;-1.342;2023-02-27T13:59:33;0;0;
61592;PMS5003;47485;51.378;-1.342;2023-02-27T14:02:02;2;2;
61592;PMS5003;47485;51.378;-1.342;2023-02-27T14:04:32;3;3;
61592;PMS5003;47485;51.378;-1.342;2023-02-27T14:07:03;3;2;
61592;PMS5003;47485;51.378;-1.342;2023-02-27T14:09:37;2;2;
61592;PMS5003;47485;51.378;-1.342;2023-02-27T14:12:20;1;1;
61592;PMS5003;47485;51.378;-1.342;2023-02-27T14:14:54;1;1;
61592;PMS5003;47485;51.378;-1.342;2023-02-27T14:17:37;2;2;
61592;PMS5003;47485;51.378;-1.342;2023-02-27T14:20:09;3;2;
61592;PMS5003;47485;51.378;-1.342;2023-02-27T14:22:42;4;4;
61592;PMS5003;47485;51.378;-1.342;2023-02-27T14:25:42;2;2;
61592;PMS5003;47485;51.378;-1.342;2023-02-27T14:28:15;3;3;
61592;PMS5003;47485;51.378;-1.342;2023-02-27T14:30:50;2;2;
61592;PMS5003;47485;51.378;-1.342;2023-02-27T14:33:22;5;3;
61592;PMS5003;47485;51.378;-1.342;2023-02-27T14:35:55;5;4;
61592;PMS5003;47485;51.378;-1.342;2023-02-27T14:38:24;3;2;
61592;PMS5003;47485;51.378;-1.342;2023-02-27T14:40:59;4;3;
61592;PMS5003;47485;51.378;-1.342;2023-02-27T14:43:37;3;2;
61592;PMS5003;47485;51.378;-1.342;2023-02-27T14:46:10;3;3;
61592;PMS5003;47485;51.378;-1.342;2023-02-27T14:48:45;3;2;
61592;PMS5003;47485;51.378;-1.342;2023-02-27T14:51:12;5;2;
61592;PMS5003;47485;51.378;-1.342;2023-02-27T14:53:40;5;2;
61592;PMS5003;47485;51.378;-1.342;2023-02-27T14:56:14;2;2;
61592;PMS5003;47485;51.378;-1.342;2023-02-27T14:58:45;2;2;
61592;PMS5003;47485;51.378;-1.342;2023-02-27T15:01:13;0;0;
61592;PMS5003;47485;51.378;-1.342;2023-02-27T15:03:44;2;1;
61592;PMS5003;47485;51.378;-1.342;2023-02-27T15:06:14;3;3;
61592;PMS5003;47485;51.378;-1.342;2023-02-27T15:08:45;3;2;
61592;PMS5003;47485;51.378;-1.342;2023-02-27T15:11:16;3;3;
61592;PMS5003;47485;51.378;-1.342;2023-02-27T15:13:45;4;4;
61592;PMS5003;47485;51.378;-1.342;2023-02-27T15:16:19;1;1;
61592;PMS5003;47485;51.378;-1.342;2023-02-27T15:18:54;3;2;
61592;PMS5003;47485;51.378;-1.342;2023-02-27T15:21:23;3;3;
61592;PMS5003;47485;51.378;-1.342;2023-02-27T15:23:53;2;2;
61592;PMS5003;47485;51.378;-1.342;2023-02-27T15:26:21;1;1;
61592;PMS5003;47485;51.378;-1.342;2023-02-27T15:28:50;3;3;
61592;PMS5003;47485;51.378;-1.342;2023-02-27T15:31:18;2;2;
61592;PMS5003;47485;51.378;-1.342;2023-02-27T15:33:47;7;7;
61592;PMS5003;47485;51.378;-1.342;2023-02-27T15:36:18;4;4;
61592;PMS5003;47485;51.378;-1.342;2023-02-27T15:38:49;0;0;
61592;PMS5003;47485;51.378;-1.342;2023-02-27T15:41:29;2;2;
61592;PMS5003;47485;51.378;-1.342;2023-02-27T15:43:57;3;2;
61592;PMS5003;47485;51.378;-1.342;2023-02-27T15:46:24;0;0;
61592;PMS5003;47485;51.378;-1.342;2023-02-27T15:48:51;1;1;
61592;PMS5003;47485;51.378;-1.342;2023-02-27T15:51:20;1;1;
61592;PMS5003;47485;51.378;-1.342;2023-02-27T15:53:47;2;2;
61592;PMS5003;47485;51.378;-1.342;2023-02-27T15:56:18;1;1;
61592;PMS5003;47485;51.378;-1.342;2023-02-27T15:58:52;3;2;
61592;PMS5003;47485;51.378;-1.342;2023-02-27T16:01:21;2;2;
61592;PMS5003;47485;51.378;-1.342;2023-02-27T16:03:51;2;2;
61592;PMS5003;47485;51.378;-1.342;2023-02-27T16:06:21;3;3;
61592;PMS5003;47485;51.378;-1.342;2023-02-27T16:08:52;3;3;
61592;PMS5003;47485;51.378;-1.342;2023-02-27T16:11:21;1;1;
61592;PMS5003;47485;51.378;-1.342;2023-02-27T16:13:50;1;1;
61592;PMS5003;47485;51.378;-1.342;2023-02-27T16:16:21;3;3;
61592;PMS5003;47485;51.378;-1.342;2023-02-27T16:18:54;4;3;
61592;PMS5003;47485;51.378;-1.342;2023-02-27T16:21:23;2;2;
61592;PMS5003;47485;51.378;-1.342;2023-02-27T16:23:51;2;2;
61592;PMS5003;47485;51.378;-1.342;2023-02-27T16:26:20;2;2;
61592;PMS5003;47485;51.378;-1.342;2023-02-27T16:28:52;4;3;
61592;PMS5003;47485;51.378;-1.342;2023-02-27T16:31:23;6;5;
61592;PMS5003;47485;51.378;-1.342;2023-02-27T16:33:53;3;3;
61592;PMS5003;47485;51.378;-1.342;2023-02-27T16:36:24;5;4;
61592;PMS5003;47485;51.378;-1.342;2023-02-27T16:38:52;4;4;
61592;PMS5003;47485;51.378;-1.342;2023-02-27T16:41:22;7;5;
61592;PMS5003;47485;51.378;-1.342;2023-02-27T16:43:54;3;3;
61592;PMS5003;47485;51.378;-1.342;2023-02-27T16:46:23;3;3;
61592;PMS5003;47485;51.378;-1.342;2023-02-27T16:48:51;1;1;
61592;PMS5003;47485;51.378;-1.342;2023-02-27T16:51:20;3;3;
61592;PMS5003;47485;51.378;-1.342;2023-02-27T16:53:48;5;4;